Terminal Aerodrome Forecast
Issued by NWS Columbia, SC

Home | Current Version | Previous Version | Text Only | Print | Product List | Glossary On
Versions: 1 2 3 4 5 6 7 8 9 10 11 12 13 14 15 16 17 18 19 20 21 22 23 24 25 26 27 28 29 30 31 32 33 34
000
FTUS42 KCAE 162000 AAA
TAFCAE
TAF AMD
KCAE 162046Z 1621/1718 VRB03KT P6SM SCT050
     FM170600 VRB03KT 4SM BR SCT025
     FM171000 VRB03KT 1SM BR OVC006
     FM171300 03004KT P6SM BKN015=

USA.gov is the U.S. government's official web portal to all federal, state and local government web resources and services.